YV3077 SVBC-SVMY
Flight info
| Callsign | YV3077 |
|---|---|
| Flight time | N/A |
| Altitude | 9500 |
| Route | CURATAQUICHE DCT EL SAMAN DCT URICA DCT PUNTA DE MATA DCT MUN |
| Aircraft | PA31/L-SDFG/C |
Departure
| Time | 2026-04-17 15:39 |
|---|---|
| Airport | General José Antonio Anzoategui International Airport (SVBC) |
Arrival
| Time | N/A |
|---|---|
| Airport | Mayupa Airport (SVMY) |
| Time | Latitude | Longitude | Altitude | Speed | Heading |
|---|---|---|---|---|---|
| 2026-04-17 15:17 | 10.10775 | -64.68671 | 44 ft | 0 kts | 347° |
| 2026-04-17 15:37 | 10.10780 | -64.68684 | 44 ft | 6 kts | 236° |
| 2026-04-17 15:37 | 10.10712 | -64.68707 | 44 ft | 14 kts | 179° |
| 2026-04-17 15:37 | 10.10612 | -64.68685 | 45 ft | 14 kts | 167° |
| 2026-04-17 15:38 | 10.10544 | -64.68670 | 45 ft | 9 kts | 169° |
| 2026-04-17 15:38 | 10.10456 | -64.68647 | 45 ft | 11 kts | 166° |
| 2026-04-17 15:38 | 10.10391 | -64.68649 | 45 ft | 12 kts | 305° |
| 2026-04-17 15:38 | 10.10611 | -64.68832 | 45 ft | 75 kts | 324° |
| 2026-04-17 15:39 | 10.11127 | -64.69224 | 112 ft | 101 kts | 326° |
| 2026-04-17 15:39 | 10.11735 | -64.69685 | 317 ft | 114 kts | 322° |
| 2026-04-17 15:39 | 10.12301 | -64.70283 | 535 ft | 122 kts | 304° |
| 2026-04-17 15:39 | 10.12488 | -64.71139 | 740 ft | 126 kts | 262° |
| 2026-04-17 15:40 | 10.12152 | -64.71942 | 903 ft | 130 kts | 229° |
| 2026-04-17 15:40 | 10.11420 | -64.72395 | 1119 ft | 123 kts | 182° |
| 2026-04-17 15:40 | 10.10619 | -64.72172 | 1310 ft | 120 kts | 144° |
| 2026-04-17 15:40 | 10.09914 | -64.71719 | 1498 ft | 121 kts | 143° |
| 2026-04-17 15:41 | 10.09166 | -64.71266 | 1638 ft | 127 kts | 146° |
| 2026-04-17 15:41 | 10.08387 | -64.70812 | 1795 ft | 130 kts | 147° |
| 2026-04-17 15:41 | 10.07587 | -64.70355 | 1961 ft | 131 kts | 147° |
| 2026-04-17 15:41 | 10.06786 | -64.69894 | 2127 ft | 132 kts | 147° |
| 2026-04-17 15:42 | 10.05980 | -64.69430 | 2291 ft | 133 kts | 147° |
| 2026-04-17 15:42 | 10.05244 | -64.68883 | 2488 ft | 129 kts | 125° |
| 2026-04-17 15:42 | 10.04739 | -64.68130 | 2680 ft | 129 kts | 121° |
| 2026-04-17 15:42 | 10.04244 | -64.67370 | 2870 ft | 129 kts | 121° |
| 2026-04-17 15:43 | 10.03756 | -64.66614 | 3061 ft | 129 kts | 121° |
| 2026-04-17 15:43 | 10.03264 | -64.65848 | 3258 ft | 129 kts | 121° |
| 2026-04-17 15:43 | 10.02777 | -64.65081 | 3449 ft | 129 kts | 121° |
| 2026-04-17 15:43 | 10.02290 | -64.64317 | 3640 ft | 129 kts | 121° |
| 2026-04-17 15:44 | 10.01799 | -64.63552 | 3831 ft | 129 kts | 121° |
| 2026-04-17 15:44 | 10.01309 | -64.62788 | 4022 ft | 129 kts | 121° |
| 2026-04-17 15:44 | 10.00820 | -64.62034 | 4211 ft | 130 kts | 121° |
| 2026-04-17 15:44 | 10.00318 | -64.61257 | 4407 ft | 131 kts | 121° |
| 2026-04-17 15:45 | 9.99815 | -64.60480 | 4606 ft | 133 kts | 121° |
| 2026-04-17 15:45 | 9.99300 | -64.59690 | 4805 ft | 134 kts | 121° |
| 2026-04-17 15:45 | 9.98779 | -64.58894 | 5007 ft | 135 kts | 121° |
| 2026-04-17 15:45 | 9.98263 | -64.58104 | 5200 ft | 136 kts | 120° |
| 2026-04-17 15:46 | 9.97733 | -64.57291 | 5381 ft | 138 kts | 121° |
| 2026-04-17 15:46 | 9.97202 | -64.56473 | 5561 ft | 140 kts | 121° |
| 2026-04-17 15:46 | 9.96661 | -64.55641 | 5750 ft | 140 kts | 121° |
| 2026-04-17 15:46 | 9.96119 | -64.54815 | 5945 ft | 140 kts | 121° |
| 2026-04-17 15:47 | 9.95577 | -64.53995 | 6137 ft | 141 kts | 121° |
| 2026-04-17 15:47 | 9.95031 | -64.53162 | 6323 ft | 142 kts | 120° |
| 2026-04-17 15:47 | 9.94487 | -64.52330 | 6511 ft | 142 kts | 121° |
| 2026-04-17 15:47 | 9.93932 | -64.51489 | 6706 ft | 142 kts | 121° |
| 2026-04-17 15:48 | 9.93382 | -64.50648 | 6901 ft | 143 kts | 121° |
| 2026-04-17 15:48 | 9.92835 | -64.49805 | 7103 ft | 143 kts | 121° |
| 2026-04-17 15:48 | 9.92291 | -64.48962 | 7301 ft | 143 kts | 121° |
| 2026-04-17 15:48 | 9.91748 | -64.48113 | 7501 ft | 143 kts | 121° |
| 2026-04-17 15:49 | 9.91204 | -64.47263 | 7695 ft | 143 kts | 121° |
| 2026-04-17 15:49 | 9.90666 | -64.46420 | 7883 ft | 144 kts | 121° |
| 2026-04-17 15:49 | 9.90120 | -64.45561 | 8074 ft | 144 kts | 120° |
| 2026-04-17 15:49 | 9.89570 | -64.44701 | 8273 ft | 145 kts | 120° |
| 2026-04-17 15:50 | 9.89027 | -64.43853 | 8472 ft | 145 kts | 121° |
| 2026-04-17 15:50 | 9.88503 | -64.43035 | 8656 ft | 145 kts | 120° |
| 2026-04-17 15:50 | 9.87950 | -64.42171 | 8851 ft | 145 kts | 120° |
| 2026-04-17 15:50 | 9.87408 | -64.41316 | 9045 ft | 145 kts | 121° |
| 2026-04-17 15:51 | 9.86859 | -64.40443 | 9247 ft | 146 kts | 121° |
| 2026-04-17 15:51 | 9.86317 | -64.39575 | 9438 ft | 146 kts | 121° |
| 2026-04-17 15:51 | 9.85762 | -64.38680 | 9475 ft | 157 kts | 120° |
| 2026-04-17 15:51 | 9.85168 | -64.37710 | 9460 ft | 163 kts | 120° |
| 2026-04-17 15:52 | 9.84571 | -64.36745 | 9456 ft | 163 kts | 120° |
| 2026-04-17 15:52 | 9.83976 | -64.35763 | 9461 ft | 163 kts | 116° |
| 2026-04-17 15:52 | 9.83520 | -64.34708 | 9455 ft | 163 kts | 111° |
| 2026-04-17 15:52 | 9.83080 | -64.33655 | 9458 ft | 163 kts | 111° |
| 2026-04-17 15:53 | 9.82647 | -64.32616 | 9458 ft | 163 kts | 111° |
| 2026-04-17 15:53 | 9.82190 | -64.31531 | 9459 ft | 162 kts | 111° |
| 2026-04-17 15:53 | 9.81780 | -64.30469 | 9472 ft | 162 kts | 109° |
| 2026-04-17 15:53 | 9.81369 | -64.29392 | 9470 ft | 163 kts | 110° |
| 2026-04-17 15:54 | 9.80972 | -64.28309 | 9470 ft | 163 kts | 107° |
| 2026-04-17 15:54 | 9.80683 | -64.27206 | 9477 ft | 163 kts | 103° |
| 2026-04-17 15:54 | 9.80424 | -64.26090 | 9478 ft | 163 kts | 103° |
| 2026-04-17 15:54 | 9.80166 | -64.24959 | 9475 ft | 163 kts | 103° |
| 2026-04-17 15:55 | 9.79911 | -64.23837 | 9469 ft | 163 kts | 103° |
| 2026-04-17 15:55 | 9.79662 | -64.22726 | 9473 ft | 163 kts | 103° |
| 2026-04-17 15:55 | 9.79408 | -64.21603 | 9473 ft | 163 kts | 102° |
| 2026-04-17 15:55 | 9.79154 | -64.20486 | 9461 ft | 162 kts | 102° |
| 2026-04-17 15:56 | 9.78898 | -64.19366 | 9465 ft | 162 kts | 103° |
| 2026-04-17 15:56 | 9.78648 | -64.18251 | 9472 ft | 161 kts | 102° |
| 2026-04-17 15:56 | 9.78391 | -64.17153 | 9474 ft | 161 kts | 103° |
| 2026-04-17 15:56 | 9.78129 | -64.16050 | 9479 ft | 161 kts | 103° |
| 2026-04-17 15:57 | 9.77861 | -64.14938 | 9482 ft | 162 kts | 102° |
| 2026-04-17 15:57 | 9.77592 | -64.13828 | 9475 ft | 162 kts | 103° |
| 2026-04-17 15:57 | 9.77324 | -64.12711 | 9480 ft | 163 kts | 103° |
| 2026-04-17 15:57 | 9.77061 | -64.11602 | 9475 ft | 163 kts | 102° |
| 2026-04-17 15:58 | 9.76799 | -64.10480 | 9453 ft | 163 kts | 103° |
| 2026-04-17 15:58 | 9.76537 | -64.09356 | 9471 ft | 161 kts | 103° |
| 2026-04-17 15:58 | 9.76289 | -64.08259 | 9476 ft | 161 kts | 102° |
| 2026-04-17 15:58 | 9.76032 | -64.07143 | 9488 ft | 161 kts | 103° |
| 2026-04-17 15:59 | 9.75777 | -64.06039 | 9492 ft | 162 kts | 102° |
| 2026-04-17 15:59 | 9.75517 | -64.04918 | 9475 ft | 163 kts | 102° |
| 2026-04-17 15:59 | 9.75252 | -64.03790 | 9467 ft | 163 kts | 102° |
| 2026-04-17 15:59 | 9.74991 | -64.02686 | 9467 ft | 162 kts | 103° |
| 2026-04-17 16:00 | 9.74726 | -64.01574 | 9477 ft | 161 kts | 102° |
| 2026-04-17 16:00 | 9.74465 | -64.00473 | 9476 ft | 162 kts | 103° |
| 2026-04-17 16:00 | 9.74197 | -63.99359 | 9462 ft | 163 kts | 102° |
| 2026-04-17 16:00 | 9.73927 | -63.98237 | 9461 ft | 163 kts | 102° |
| 2026-04-17 16:01 | 9.73659 | -63.97125 | 9459 ft | 163 kts | 102° |
| 2026-04-17 16:01 | 9.73386 | -63.96002 | 9456 ft | 163 kts | 102° |
| 2026-04-17 16:01 | 9.73123 | -63.94893 | 9458 ft | 163 kts | 102° |
| 2026-04-17 16:01 | 9.72858 | -63.93769 | 9461 ft | 162 kts | 102° |
| 2026-04-17 16:02 | 9.72596 | -63.92657 | 9460 ft | 163 kts | 102° |
| 2026-04-17 16:02 | 9.72337 | -63.91546 | 9453 ft | 163 kts | 102° |
| 2026-04-17 16:02 | 9.72074 | -63.90418 | 9451 ft | 163 kts | 102° |
| 2026-04-17 16:02 | 9.71819 | -63.89320 | 9449 ft | 162 kts | 103° |
| 2026-04-17 16:03 | 9.71557 | -63.88198 | 9448 ft | 161 kts | 102° |
| 2026-04-17 16:03 | 9.71299 | -63.87093 | 9453 ft | 162 kts | 102° |
| 2026-04-17 16:03 | 9.71038 | -63.85989 | 9449 ft | 162 kts | 102° |
| 2026-04-17 16:03 | 9.70771 | -63.84868 | 9451 ft | 163 kts | 102° |
| 2026-04-17 16:04 | 9.70502 | -63.83752 | 9444 ft | 163 kts | 102° |
| 2026-04-17 16:04 | 9.70237 | -63.82642 | 9449 ft | 163 kts | 102° |
| 2026-04-17 16:04 | 9.69970 | -63.81531 | 9448 ft | 163 kts | 103° |
| 2026-04-17 16:04 | 9.69698 | -63.80405 | 9450 ft | 162 kts | 102° |
| 2026-04-17 16:05 | 9.69431 | -63.79301 | 9444 ft | 162 kts | 102° |
| 2026-04-17 16:05 | 9.69163 | -63.78194 | 9442 ft | 161 kts | 102° |
| 2026-04-17 16:05 | 9.68898 | -63.77089 | 9443 ft | 161 kts | 102° |
| 2026-04-17 16:05 | 9.68640 | -63.75984 | 9459 ft | 161 kts | 102° |
| 2026-04-17 16:06 | 9.68388 | -63.74886 | 9377 ft | 159 kts | 102° |
| 2026-04-17 16:06 | 9.68138 | -63.73791 | 9204 ft | 159 kts | 102° |
| 2026-04-17 16:06 | 9.67882 | -63.72705 | 9033 ft | 159 kts | 102° |
| 2026-04-17 16:06 | 9.67635 | -63.71622 | 8863 ft | 157 kts | 97° |
| 2026-04-17 16:07 | 9.67656 | -63.70503 | 8692 ft | 157 kts | 85° |
| 2026-04-17 16:07 | 9.67741 | -63.69410 | 8526 ft | 157 kts | 85° |
| 2026-04-17 16:07 | 9.67828 | -63.68308 | 8381 ft | 157 kts | 85° |
| 2026-04-17 16:07 | 9.67914 | -63.67195 | 8218 ft | 157 kts | 85° |
| 2026-04-17 16:08 | 9.67998 | -63.66102 | 8057 ft | 156 kts | 85° |
| 2026-04-17 16:08 | 9.68079 | -63.65012 | 7890 ft | 156 kts | 85° |
| 2026-04-17 16:08 | 9.68162 | -63.63926 | 7733 ft | 155 kts | 85° |
| 2026-04-17 16:08 | 9.68248 | -63.62826 | 7573 ft | 154 kts | 85° |
| 2026-04-17 16:09 | 9.68332 | -63.61758 | 7412 ft | 154 kts | 85° |
| 2026-04-17 16:09 | 9.68416 | -63.60677 | 7253 ft | 153 kts | 85° |
| 2026-04-17 16:09 | 9.68498 | -63.59589 | 7084 ft | 153 kts | 85° |
| 2026-04-17 16:09 | 9.68574 | -63.58520 | 6923 ft | 152 kts | 85° |
| 2026-04-17 16:10 | 9.68642 | -63.57456 | 6759 ft | 152 kts | 85° |
| 2026-04-17 16:10 | 9.68709 | -63.56395 | 6601 ft | 151 kts | 85° |
| 2026-04-17 16:10 | 9.68776 | -63.55335 | 6441 ft | 151 kts | 85° |
| 2026-04-17 16:10 | 9.68847 | -63.54269 | 6280 ft | 151 kts | 85° |
| 2026-04-17 16:11 | 9.68916 | -63.53211 | 6121 ft | 150 kts | 85° |
| 2026-04-17 16:11 | 9.68989 | -63.52158 | 5959 ft | 149 kts | 85° |
| 2026-04-17 16:11 | 9.69061 | -63.51109 | 5798 ft | 149 kts | 85° |
| 2026-04-17 16:11 | 9.69135 | -63.50062 | 5641 ft | 149 kts | 85° |
| 2026-04-17 16:12 | 9.69213 | -63.49024 | 5484 ft | 148 kts | 85° |
| 2026-04-17 16:12 | 9.69291 | -63.47978 | 5337 ft | 148 kts | 85° |
| 2026-04-17 16:12 | 9.69364 | -63.46946 | 5186 ft | 147 kts | 85° |
| 2026-04-17 16:12 | 9.69434 | -63.45920 | 5033 ft | 146 kts | 85° |
| 2026-04-17 16:13 | 9.69501 | -63.44885 | 4874 ft | 146 kts | 85° |
| 2026-04-17 16:13 | 9.69567 | -63.43858 | 4717 ft | 146 kts | 85° |
| 2026-04-17 16:13 | 9.69635 | -63.42832 | 4559 ft | 145 kts | 85° |
| 2026-04-17 16:13 | 9.69700 | -63.41807 | 4400 ft | 145 kts | 85° |
| 2026-04-17 16:14 | 9.69836 | -63.39795 | 4089 ft | 142 kts | 85° |
| 2026-04-17 16:14 | 9.69905 | -63.38792 | 3933 ft | 141 kts | 85° |
| 2026-04-17 16:14 | 9.69972 | -63.37796 | 3775 ft | 141 kts | 85° |
| 2026-04-17 16:15 | 9.70036 | -63.36813 | 3620 ft | 140 kts | 85° |
| 2026-04-17 16:15 | 9.70099 | -63.35834 | 3465 ft | 139 kts | 85° |
| 2026-04-17 16:15 | 9.70157 | -63.34849 | 3307 ft | 138 kts | 85° |
| 2026-04-17 16:15 | 9.70214 | -63.33882 | 3153 ft | 138 kts | 85° |
| 2026-04-17 16:16 | 9.70270 | -63.32911 | 2994 ft | 137 kts | 85° |
| 2026-04-17 16:16 | 9.70322 | -63.31947 | 2836 ft | 137 kts | 85° |
| 2026-04-17 16:16 | 9.70376 | -63.30991 | 2679 ft | 135 kts | 85° |
| 2026-04-17 16:16 | 9.70431 | -63.30050 | 2519 ft | 134 kts | 85° |
| 2026-04-17 16:17 | 9.70481 | -63.29102 | 2365 ft | 133 kts | 85° |
| 2026-04-17 16:17 | 9.70531 | -63.28164 | 2208 ft | 133 kts | 85° |
| 2026-04-17 16:17 | 9.70578 | -63.27241 | 2049 ft | 132 kts | 85° |
| 2026-04-17 16:17 | 9.70625 | -63.26304 | 1895 ft | 132 kts | 85° |
| 2026-04-17 16:18 | 9.70668 | -63.25399 | 1730 ft | 127 kts | 85° |
| 2026-04-17 16:18 | 9.70710 | -63.24519 | 1556 ft | 122 kts | 85° |
| 2026-04-17 16:18 | 9.70751 | -63.23674 | 1381 ft | 119 kts | 85° |
| 2026-04-17 16:18 | 9.70789 | -63.22855 | 1223 ft | 113 kts | 85° |
| 2026-04-17 16:19 | 9.70826 | -63.22107 | 1096 ft | 97 kts | 86° |
| 2026-04-17 16:19 | 9.70845 | -63.21468 | 1095 ft | 89 kts | 86° |
| 2026-04-17 16:19 | 9.70860 | -63.20833 | 1101 ft | 91 kts | 85° |
| 2026-04-17 16:19 | 9.70932 | -63.20192 | 1099 ft | 92 kts | 74° |
| 2026-04-17 16:20 | 9.71241 | -63.19616 | 1084 ft | 94 kts | 55° |
| 2026-04-17 16:20 | 9.71637 | -63.19072 | 980 ft | 98 kts | 52° |
| 2026-04-17 16:20 | 9.72095 | -63.18533 | 840 ft | 100 kts | 48° |
| 2026-04-17 16:20 | 9.72562 | -63.18016 | 700 ft | 96 kts | 49° |
| 2026-04-17 16:21 | 9.72997 | -63.17527 | 616 ft | 89 kts | 50° |
| 2026-04-17 16:21 | 9.73411 | -63.17041 | 504 ft | 90 kts | 49° |
| 2026-04-17 16:21 | 9.73825 | -63.16559 | 392 ft | 92 kts | 49° |
| 2026-04-17 16:21 | 9.74250 | -63.16071 | 290 ft | 89 kts | 48° |
| 2026-04-17 16:22 | 9.74616 | -63.15681 | 225 ft | 56 kts | 49° |
| 2026-04-17 16:22 | 9.74786 | -63.15549 | 225 ft | 10 kts | 324° |
| 2026-04-17 16:22 | 9.74792 | -63.15554 | 225 ft | 0 kts | 317° |
| 2026-04-17 16:23 | 9.74795 | -63.15557 | 225 ft | 2 kts | 317° |
| 2026-04-17 16:23 | 9.74806 | -63.15598 | 225 ft | 9 kts | 242° |
| 2026-04-17 16:23 | 9.74766 | -63.15644 | 225 ft | 4 kts | 228° |
| 2026-04-17 16:23 | 9.74727 | -63.15688 | 225 ft | 11 kts | 229° |
| 2026-04-17 16:24 | 9.74713 | -63.15737 | 225 ft | 5 kts | 323° |
| 2026-04-17 16:24 | 9.74737 | -63.15746 | 225 ft | 1 kts | 47° |